Time;durP1;ratioP1;P1;durP2;ratioP2;P2;SDS_P1;SDS_P2;PMS_P1;PMS_P2;Temp;Humidity;BMP_temperature;BMP_pressure;BME280_temperature;BME280_humidity;BME280_pressure;Samples;Min_cycle;Max_cycle;Signal;HPM_P1;HPM_P2
2024/01/19 00:01:01;;;;;;;6.30;1.95;;;;;;;;;;5026806;28;20048;-86
2024/01/19 00:03:27;;;;;;;3.42;1.50;;;;;;;;;;5032630;28;20071;-86
2024/01/19 00:05:53;;;;;;;3.95;2.17;;;;;;;;;;5051517;28;20080;-86
2024/01/19 00:08:19;;;;;;;6.93;1.50;;;;;;;;;;5030263;28;20037;-87
2024/01/19 00:10:45;;;;;;;4.43;1.55;;;;;;;;;;5045413;28;20045;-85
2024/01/19 00:13:11;;;;;;;4.35;1.67;;;;;;;;;;5026533;28;20044;-86
2024/01/19 00:15:37;;;;;;;4.50;1.98;;;;;;;;;;5030981;28;20698;-86
2024/01/19 00:18:03;;;;;;;5.47;1.73;;;;;;;;;;5029828;28;20040;-86
2024/01/19 00:20:29;;;;;;;4.05;1.23;;;;;;;;;;5035914;28;20040;-87
2024/01/19 00:22:55;;;;;;;6.75;1.85;;;;;;;;;;5042828;28;20048;-86
2024/01/19 00:25:21;;;;;;;3.00;1.70;;;;;;;;;;5026187;28;20119;-86
2024/01/19 00:27:47;;;;;;;10.27;1.60;;;;;;;;;;5026550;28;20122;-86
2024/01/19 00:30:13;;;;;;;4.60;2.20;;;;;;;;;;5029411;28;20128;-86
2024/01/19 00:32:39;;;;;;;3.95;1.30;;;;;;;;;;5027140;28;20918;-87
2024/01/19 00:35:05;;;;;;;7.13;1.67;;;;;;;;;;5026063;28;20080;-86
2024/01/19 00:37:31;;;;;;;8.27;2.65;;;;;;;;;;5025935;28;20061;-86
2024/01/19 00:39:57;;;;;;;4.95;1.30;;;;;;;;;;5025958;28;20670;-86
2024/01/19 00:42:23;;;;;;;8.15;2.00;;;;;;;;;;5042657;28;20131;-86
2024/01/19 00:44:49;;;;;;;2.50;1.42;;;;;;;;;;5036005;28;20939;-86
2024/01/19 00:47:16;;;;;;;4.18;1.55;;;;;;;;;;5025935;28;20047;-86
2024/01/19 00:49:42;;;;;;;6.28;1.48;;;;;;;;;;5029711;28;20616;-86
2024/01/19 00:52:08;;;;;;;4.88;1.98;;;;;;;;;;5025848;28;20569;-86
2024/01/19 00:54:35;;;;;;;3.30;1.70;;;;;;;;;;5031119;28;20047;-86
2024/01/19 00:57:02;;;;;;;6.15;1.20;;;;;;;;;;5025696;28;20056;-86
2024/01/19 00:59:28;;;;;;;6.57;1.70;;;;;;;;;;5029832;28;20118;-86
2024/01/19 01:01:54;;;;;;;3.17;1.20;;;;;;;;;;5047823;28;20043;-87
2024/01/19 01:04:20;;;;;;;8.63;2.38;;;;;;;;;;5032908;28;20051;-86
2024/01/19 01:06:46;;;;;;;5.32;1.40;;;;;;;;;;5045181;28;20519;-86
2024/01/19 01:09:12;;;;;;;2.65;1.42;;;;;;;;;;5031511;28;20045;-86
2024/01/19 01:11:38;;;;;;;3.60;1.83;;;;;;;;;;5034546;28;20048;-87
2024/01/19 01:14:04;;;;;;;7.50;1.98;;;;;;;;;;5025285;28;20838;-86
2024/01/19 01:16:30;;;;;;;6.88;1.90;;;;;;;;;;5030205;28;20127;-87
2024/01/19 01:18:57;;;;;;;2.80;1.52;;;;;;;;;;5027212;28;20045;-86
2024/01/19 01:21:23;;;;;;;3.97;1.33;;;;;;;;;;5041556;28;20588;-86
2024/01/19 01:23:49;;;;;;;5.22;1.92;;;;;;;;;;5045534;28;20547;-87
2024/01/19 01:26:15;;;;;;;5.35;1.42;;;;;;;;;;5028625;28;20175;-87
2024/01/19 01:28:41;;;;;;;4.28;1.73;;;;;;;;;;5031070;28;20147;-86
2024/01/19 01:31:07;;;;;;;6.82;1.73;;;;;;;;;;5039483;28;20047;-86
2024/01/19 01:33:33;;;;;;;3.80;1.23;;;;;;;;;;5029881;28;20037;-87
2024/01/19 01:35:59;;;;;;;2.70;1.27;;;;;;;;;;5036691;28;20068;-86
2024/01/19 01:38:25;;;;;;;4.75;1.65;;;;;;;;;;5027887;28;20540;-86
2024/01/19 01:40:51;;;;;;;4.85;1.63;;;;;;;;;;5027757;28;20132;-86
2024/01/19 01:43:23;;;;;;;4.78;1.25;;;;;;;;;;5026866;28;20127;-86
2024/01/19 01:45:49;;;;;;;5.22;1.70;;;;;;;;;;5048277;28;20057;-86
2024/01/19 01:48:15;;;;;;;6.40;1.33;;;;;;;;;;5033333;28;20041;-86
2024/01/19 01:50:41;;;;;;;4.43;1.48;;;;;;;;;;5029113;28;20068;-86
2024/01/19 01:53:07;;;;;;;5.80;1.50;;;;;;;;;;5045563;28;20502;-87
2024/01/19 01:55:33;;;;;;;2.40;1.65;;;;;;;;;;5030244;28;20067;-87
2024/01/19 01:57:59;;;;;;;5.68;1.35;;;;;;;;;;5032326;28;20049;-86
2024/01/19 02:00:26;;;;;;;4.50;1.02;;;;;;;;;;5027235;28;20510;-87
2024/01/19 02:02:53;;;;;;;4.13;1.50;;;;;;;;;;5028144;28;20047;-86
2024/01/19 02:05:19;;;;;;;3.70;1.80;;;;;;;;;;5043793;28;20396;-86
2024/01/19 02:07:45;;;;;;;3.47;1.95;;;;;;;;;;5037754;28;20074;-86
2024/01/19 02:10:11;;;;;;;5.75;1.52;;;;;;;;;;5038988;28;20080;-86
2024/01/19 02:12:37;;;;;;;2.20;1.10;;;;;;;;;;5033179;28;20134;-86
2024/01/19 02:15:03;;;;;;;3.85;1.52;;;;;;;;;;5044528;28;20935;-86
2024/01/19 02:17:29;;;;;;;2.88;1.00;;;;;;;;;;5020778;28;20051;-86
2024/01/19 02:19:55;;;;;;;7.88;1.58;;;;;;;;;;5027408;28;20053;-87
2024/01/19 02:22:21;;;;;;;4.55;1.27;;;;;;;;;;5027167;28;20162;-85
2024/01/19 02:24:48;;;;;;;2.60;1.10;;;;;;;;;;5027032;28;20463;-86
2024/01/19 02:27:14;;;;;;;2.30;1.20;;;;;;;;;;5045217;28;20048;-87
2024/01/19 02:29:48;;;;;;;2.50;1.10;;;;;;;;;;5033627;28;20040;-86
2024/01/19 02:32:14;;;;;;;5.00;1.60;;;;;;;;;;5047743;28;20109;-87
2024/01/19 02:34:40;;;;;;;4.10;1.45;;;;;;;;;;5022077;28;20040;-86
2024/01/19 02:37:06;;;;;;;3.97;1.60;;;;;;;;;;4975364;28;1444766;-87
2024/01/19 02:39:32;;;;;;;3.38;1.17;;;;;;;;;;5024308;28;20041;-86
2024/01/19 02:41:58;;;;;;;3.50;1.15;;;;;;;;;;5027523;28;20041;-86
2024/01/19 02:44:24;;;;;;;3.60;1.25;;;;;;;;;;5032062;28;20580;-86
2024/01/19 02:46:50;;;;;;;5.55;1.55;;;;;;;;;;5038492;28;20040;-87
2024/01/19 02:49:16;;;;;;;3.17;1.23;;;;;;;;;;5045578;28;20045;-86
2024/01/19 02:51:42;;;;;;;5.95;1.30;;;;;;;;;;5016312;28;20136;-86
2024/01/19 02:54:08;;;;;;;3.33;1.10;;;;;;;;;;5027030;28;20072;-87
2024/01/19 02:56:34;;;;;;;3.30;1.45;;;;;;;;;;5028231;28;20079;-87
2024/01/19 02:59:00;;;;;;;1.48;1.10;;;;;;;;;;5028698;28;20080;-86
2024/01/19 03:01:26;;;;;;;3.63;1.05;;;;;;;;;;5044514;28;20095;-86
2024/01/19 03:03:52;;;;;;;4.03;1.30;;;;;;;;;;5029399;28;20770;-86
2024/01/19 03:06:18;;;;;;;2.92;1.23;;;;;;;;;;5037524;28;20120;-85
2024/01/19 03:08:44;;;;;;;2.97;1.20;;;;;;;;;;5059442;28;20047;-87
2024/01/19 03:11:10;;;;;;;2.67;1.23;;;;;;;;;;5035862;28;20036;-86
2024/01/19 03:13:36;;;;;;;1.70;1.27;;;;;;;;;;5032355;28;20071;-86
2024/01/19 03:16:08;;;;;;;1.98;1.30;;;;;;;;;;5027499;28;20049;-86
2024/01/19 03:18:34;;;;;;;3.50;1.17;;;;;;;;;;5031127;28;20040;-87
2024/01/19 03:21:00;;;;;;;6.10;1.42;;;;;;;;;;5027649;28;20106;-86
2024/01/19 03:23:26;;;;;;;1.90;0.95;;;;;;;;;;5027987;28;20498;-86
2024/01/19 03:25:52;;;;;;;2.65;1.00;;;;;;;;;;5034216;28;20044;-86
2024/01/19 03:28:18;;;;;;;5.68;1.30;;;;;;;;;;5029836;28;20131;-86
2024/01/19 03:30:44;;;;;;;7.88;1.48;;;;;;;;;;5030692;28;20636;-87
2024/01/19 03:33:10;;;;;;;5.38;1.40;;;;;;;;;;5048473;28;20052;-86
2024/01/19 03:35:36;;;;;;;6.82;1.30;;;;;;;;;;5030391;28;20041;-87
2024/01/19 03:38:02;;;;;;;1.88;1.10;;;;;;;;;;5027274;28;20084;-86
2024/01/19 03:40:28;;;;;;;1.95;1.10;;;;;;;;;;5026757;28;20040;-86
2024/01/19 03:42:54;;;;;;;4.78;1.40;;;;;;;;;;5036309;28;20045;-86
2024/01/19 03:45:20;;;;;;;5.15;1.30;;;;;;;;;;5025743;28;20045;-87
2024/01/19 03:47:47;;;;;;;2.65;1.40;;;;;;;;;;5029410;28;20489;-87
2024/01/19 03:50:13;;;;;;;1.77;1.15;;;;;;;;;;5033613;28;20225;-86
2024/01/19 03:52:39;;;;;;;2.15;0.98;;;;;;;;;;5026867;28;20037;-86
2024/01/19 03:55:05;;;;;;;5.63;1.42;;;;;;;;;;5044147;28;20119;-86
2024/01/19 03:57:31;;;;;;;4.05;1.17;;;;;;;;;;5030316;28;20040;-85
2024/01/19 03:59:57;;;;;;;6.25;1.77;;;;;;;;;;5029184;28;20048;-86
2024/01/19 04:02:23;;;;;;;6.80;1.40;;;;;;;;;;5029573;28;20056;-86
2024/01/19 04:04:49;;;;;;;4.72;1.65;;;;;;;;;;5032742;28;20071;-86
2024/01/19 04:07:15;;;;;;;3.63;1.30;;;;;;;;;;5026520;28;20052;-86
2024/01/19 04:09:42;;;;;;;1.90;1.20;;;;;;;;;;5030622;28;20038;-86
2024/01/19 04:12:13;;;;;;;5.13;2.05;;;;;;;;;;5031651;28;20044;-86
2024/01/19 04:14:40;;;;;;;3.35;1.17;;;;;;;;;;5033126;28;20041;-86
2024/01/19 04:17:06;;;;;;;3.90;1.63;;;;;;;;;;5026958;28;20518;-87
2024/01/19 04:19:31;;;;;;;4.95;1.08;;;;;;;;;;5026747;28;20076;-86
2024/01/19 04:21:58;;;;;;;5.65;1.55;;;;;;;;;;5026675;28;20135;-86
2024/01/19 04:24:24;;;;;;;5.03;1.55;;;;;;;;;;5026524;28;20052;-86
2024/01/19 04:26:50;;;;;;;4.13;1.13;;;;;;;;;;5031020;28;20052;-86
2024/01/19 04:29:16;;;;;;;2.50;1.25;;;;;;;;;;5026479;28;20041;-86
2024/01/19 04:31:42;;;;;;;5.43;1.10;;;;;;;;;;5028008;28;20079;-86
2024/01/19 04:34:08;;;;;;;3.03;1.05;;;;;;;;;;5026100;28;20126;-86
2024/01/19 04:36:35;;;;;;;3.67;1.48;;;;;;;;;;5031382;28;20084;-86
2024/01/19 04:39:02;;;;;;;3.92;1.40;;;;;;;;;;5026805;28;20105;-86
2024/01/19 04:41:28;;;;;;;5.38;1.80;;;;;;;;;;5025328;28;20060;-87
2024/01/19 04:43:54;;;;;;;3.53;1.35;;;;;;;;;;5031565;28;20037;-86
2024/01/19 04:46:20;;;;;;;7.22;1.30;;;;;;;;;;5053206;28;20048;-86
2024/01/19 04:48:46;;;;;;;3.80;1.27;;;;;;;;;;5025291;28;20107;-86
2024/01/19 04:51:12;;;;;;;5.00;1.40;;;;;;;;;;5030095;28;20040;-85
2024/01/19 04:53:38;;;;;;;8.63;1.40;;;;;;;;;;5050198;28;20047;-86
2024/01/19 04:56:05;;;;;;;7.97;1.58;;;;;;;;;;5038263;28;20072;-86
2024/01/19 04:58:31;;;;;;;4.63;1.60;;;;;;;;;;5025703;28;20470;-86
2024/01/19 05:00:57;;;;;;;6.10;1.67;;;;;;;;;;5026910;28;20114;-86
2024/01/19 05:03:23;;;;;;;7.18;1.30;;;;;;;;;;5032541;28;20570;-86
2024/01/19 05:05:49;;;;;;;6.68;2.15;;;;;;;;;;5041332;28;20079;-86
2024/01/19 05:08:15;;;;;;;11.65;1.80;;;;;;;;;;5029319;28;20045;-86
2024/01/19 05:10:41;;;;;;;5.25;1.45;;;;;;;;;;5029891;28;20480;-86
2024/01/19 05:13:07;;;;;;;5.45;1.48;;;;;;;;;;5017066;28;20049;-86
2024/01/19 05:15:33;;;;;;;3.55;1.48;;;;;;;;;;5024080;28;20422;-86
2024/01/19 05:18:00;;;;;;;3.00;1.20;;;;;;;;;;5021844;28;20048;-86
2024/01/19 05:20:26;;;;;;;5.68;1.60;;;;;;;;;;5026969;28;20097;-86
2024/01/19 05:22:52;;;;;;;3.50;1.73;;;;;;;;;;5036198;28;20202;-85
2024/01/19 05:25:18;;;;;;;7.95;2.03;;;;;;;;;;5047330;28;20063;-86
2024/01/19 05:27:45;;;;;;;5.82;1.50;;;;;;;;;;5026653;28;20486;-85
2024/01/19 05:30:13;;;;;;;4.60;1.60;;;;;;;;;;5032508;28;20076;-85
2024/01/19 05:32:39;;;;;;;4.50;1.77;;;;;;;;;;5036047;28;20043;-86
2024/01/19 05:35:05;;;;;;;3.35;1.50;;;;;;;;;;5027989;28;20063;-86
2024/01/19 05:37:31;;;;;;;7.13;1.92;;;;;;;;;;5028216;28;20558;-86
2024/01/19 05:39:57;;;;;;;9.07;1.75;;;;;;;;;;5028176;28;20055;-87
2024/01/19 05:42:23;;;;;;;4.32;1.60;;;;;;;;;;5039087;28;20059;-86
2024/01/19 05:44:49;;;;;;;6.95;1.48;;;;;;;;;;5033961;28;20037;-86
2024/01/19 05:47:15;;;;;;;3.05;1.48;;;;;;;;;;5041353;28;20052;-86
2024/01/19 05:49:41;;;;;;;3.83;1.63;;;;;;;;;;5024916;28;20060;-85
2024/01/19 05:52:08;;;;;;;4.45;1.70;;;;;;;;;;5028770;28;20581;-86
2024/01/19 05:54:37;;;;;;;6.03;1.50;;;;;;;;;;5031750;28;20048;-86
2024/01/19 05:57:03;;;;;;;7.68;1.98;;;;;;;;;;5032713;28;20454;-85
2024/01/19 05:59:29;;;;;;;8.10;1.73;;;;;;;;;;5030951;28;20037;-85
2024/01/19 06:01:55;;;;;;;4.60;1.92;;;;;;;;;;5040751;28;20040;-86
2024/01/19 06:04:21;;;;;;;4.90;1.52;;;;;;;;;;5049423;28;20044;-86
2024/01/19 06:06:47;;;;;;;6.78;1.80;;;;;;;;;;5028099;28;20037;-85
2024/01/19 06:09:13;;;;;;;4.07;1.67;;;;;;;;;;5055857;28;20102;-85
2024/01/19 06:11:39;;;;;;;7.40;1.77;;;;;;;;;;5034624;28;20413;-85
2024/01/19 06:14:05;;;;;;;7.90;1.65;;;;;;;;;;5048168;28;20048;-85
2024/01/19 06:16:31;;;;;;;5.30;1.52;;;;;;;;;;5040044;28;20047;-86
2024/01/19 06:19:00;;;;;;;4.85;1.65;;;;;;;;;;5034215;28;20425;-86
2024/01/19 06:21:27;;;;;;;6.78;1.83;;;;;;;;;;5032378;28;20048;-85
2024/01/19 06:23:53;;;;;;;6.75;1.40;;;;;;;;;;5047106;28;20052;-86
2024/01/19 06:26:19;;;;;;;4.95;2.63;;;;;;;;;;5043599;28;20661;-86
2024/01/19 06:28:45;;;;;;;4.50;1.45;;;;;;;;;;5032958;28;20067;-86
2024/01/19 06:31:11;;;;;;;5.90;1.90;;;;;;;;;;5030897;28;20090;-86
2024/01/19 06:33:37;;;;;;;1.65;1.20;;;;;;;;;;5046274;28;20044;-86
2024/01/19 06:36:10;;;;;;;8.02;1.35;;;;;;;;;;5032042;28;20045;-86
2024/01/19 06:38:36;;;;;;;3.50;1.38;;;;;;;;;;5038926;28;20072;-86
2024/01/19 06:41:03;;;;;;;3.78;1.27;;;;;;;;;;5036174;28;20059;-85
2024/01/19 06:43:29;;;;;;;4.45;1.10;;;;;;;;;;5035592;28;20124;-85
2024/01/19 06:45:55;;;;;;;4.70;1.17;;;;;;;;;;5029383;28;20057;-85
2024/01/19 06:48:21;;;;;;;3.60;1.45;;;;;;;;;;5048021;28;20075;-85
2024/01/19 06:50:47;;;;;;;5.38;1.70;;;;;;;;;;5024925;28;20494;-85
2024/01/19 06:53:13;;;;;;;9.60;1.73;;;;;;;;;;5058339;28;20043;-85
2024/01/19 06:55:39;;;;;;;5.05;1.48;;;;;;;;;;5041295;28;20075;-86
2024/01/19 06:58:05;;;;;;;4.50;1.52;;;;;;;;;;5025766;28;20511;-85
2024/01/19 07:00:31;;;;;;;6.50;1.50;;;;;;;;;;5043437;28;20040;-86
2024/01/19 07:02:59;;;;;;;8.52;1.67;;;;;;;;;;5040360;28;20053;-85
2024/01/19 07:05:25;;;;;;;6.78;2.00;;;;;;;;;;5030108;28;20490;-85
2024/01/19 07:07:51;;;;;;;3.65;1.10;;;;;;;;;;5041540;28;20041;-85
2024/01/19 07:10:19;;;;;;;7.80;1.58;;;;;;;;;;5042245;28;20477;-85
2024/01/19 07:12:45;;;;;;;7.10;1.92;;;;;;;;;;5046635;28;20057;-86
2024/01/19 07:15:11;;;;;;;6.85;1.92;;;;;;;;;;5031742;28;20048;-86
2024/01/19 07:17:37;;;;;;;4.70;1.58;;;;;;;;;;5032351;28;20052;-86
2024/01/19 07:20:05;;;;;;;3.55;2.30;;;;;;;;;;5034808;28;20414;-85
2024/01/19 07:22:31;;;;;;;4.65;1.90;;;;;;;;;;5034174;28;20056;-86
2024/01/19 07:24:57;;;;;;;9.65;1.60;;;;;;;;;;5041172;28;20076;-86
2024/01/19 07:27:23;;;;;;;2.70;1.20;;;;;;;;;;5037007;28;20708;-86
2024/01/19 07:29:49;;;;;;;12.15;1.40;;;;;;;;;;5030120;28;20044;-85
2024/01/19 07:32:15;;;;;;;4.05;1.42;;;;;;;;;;5030412;28;20045;-85
2024/01/19 07:34:41;;;;;;;8.82;1.70;;;;;;;;;;5026734;28;20041;-86
2024/01/19 07:37:07;;;;;;;3.70;1.50;;;;;;;;;;5029097;28;20109;-86
2024/01/19 07:39:33;;;;;;;9.00;1.60;;;;;;;;;;5036232;28;20041;-85
2024/01/19 07:42:00;;;;;;;3.70;1.23;;;;;;;;;;5029048;28;20465;-86
2024/01/19 07:44:26;;;;;;;5.65;1.55;;;;;;;;;;5031168;28;20629;-85
2024/01/19 07:46:52;;;;;;;5.43;1.50;;;;;;;;;;5021733;28;20047;-85
2024/01/19 07:49:21;;;;;;;7.00;1.63;;;;;;;;;;5022892;28;20037;-86
2024/01/19 07:51:48;;;;;;;4.63;1.98;;;;;;;;;;5043031;28;20136;-84
2024/01/19 07:54:16;;;;;;;3.03;1.25;;;;;;;;;;5013300;28;20048;-85
2024/01/19 07:56:42;;;;;;;4.18;2.20;;;;;;;;;;5043360;28;20110;-85
2024/01/19 07:59:08;;;;;;;7.07;1.33;;;;;;;;;;5028851;28;20836;-84
2024/01/19 08:01:34;;;;;;;4.30;1.70;;;;;;;;;;5030888;28;20102;-84
2024/01/19 08:04:00;;;;;;;4.97;1.50;;;;;;;;;;5047372;28;20052;-84
2024/01/19 08:06:26;;;;;;;7.47;2.30;;;;;;;;;;5024162;28;20465;-85
2024/01/19 08:08:52;;;;;;;3.67;1.63;;;;;;;;;;5022666;28;20044;-86
2024/01/19 08:11:18;;;;;;;5.55;1.67;;;;;;;;;;5021370;28;20088;-85
2024/01/19 08:13:44;;;;;;;5.40;1.60;;;;;;;;;;5042477;28;20749;-85
2024/01/19 08:16:10;;;;;;;7.32;1.35;;;;;;;;;;5025256;28;20049;-85
2024/01/19 08:18:36;;;;;;;8.85;2.38;;;;;;;;;;5028261;28;20052;-85
2024/01/19 08:21:03;;;;;;;4.35;1.60;;;;;;;;;;5024152;28;20074;-86
2024/01/19 08:23:29;;;;;;;4.28;1.77;;;;;;;;;;5028053;28;20052;-85
2024/01/19 08:25:55;;;;;;;7.00;1.40;;;;;;;;;;5027189;28;20052;-85
2024/01/19 08:28:22;;;;;;;8.38;2.00;;;;;;;;;;5030966;28;20045;-85
2024/01/19 08:30:48;;;;;;;7.53;1.70;;;;;;;;;;5022608;28;20182;-85
2024/01/19 08:33:14;;;;;;;7.22;1.88;;;;;;;;;;5030190;28;20511;-85
2024/01/19 08:35:40;;;;;;;7.07;1.30;;;;;;;;;;5018159;28;20070;-86
2024/01/19 08:38:06;;;;;;;5.47;1.50;;;;;;;;;;5022062;28;20136;-85
2024/01/19 08:40:32;;;;;;;6.35;1.95;;;;;;;;;;5040710;28;20083;-86
2024/01/19 08:42:58;;;;;;;9.65;1.85;;;;;;;;;;5049388;28;20048;-85
2024/01/19 08:45:28;;;;;;;8.68;1.85;;;;;;;;;;5028104;28;20045;-85
2024/01/19 08:47:56;;;;;;;8.02;1.63;;;;;;;;;;5022244;28;20045;-87
2024/01/19 08:50:22;;;;;;;8.65;1.95;;;;;;;;;;5023933;28;20071;-85
2024/01/19 08:52:48;;;;;;;4.63;1.77;;;;;;;;;;5043525;28;20049;-85
2024/01/19 08:55:14;;;;;;;8.52;1.83;;;;;;;;;;5025526;28;20148;-86
2024/01/19 08:57:40;;;;;;;6.28;2.00;;;;;;;;;;5033102;28;20867;-86
2024/01/19 09:00:07;;;;;;;8.40;1.88;;;;;;;;;;5019492;28;20075;-85
2024/01/19 09:02:33;;;;;;;7.47;1.90;;;;;;;;;;5025512;28;20490;-86
2024/01/19 09:05:00;;;;;;;10.35;1.88;;;;;;;;;;5022127;28;20091;-85
2024/01/19 09:07:26;;;;;;;4.53;1.60;;;;;;;;;;5032866;28;20049;-86
2024/01/19 09:09:52;;;;;;;7.70;1.90;;;;;;;;;;5035291;28;20410;-86
2024/01/19 09:12:18;;;;;;;5.28;1.60;;;;;;;;;;5027537;28;20045;-86
2024/01/19 09:14:44;;;;;;;5.78;1.70;;;;;;;;;;5017787;28;20048;-86
2024/01/19 09:17:10;;;;;;;7.47;1.85;;;;;;;;;;5041203;28;20498;-86
2024/01/19 09:19:36;;;;;;;11.13;2.72;;;;;;;;;;5021638;28;20132;-86
2024/01/19 09:22:02;;;;;;;6.93;1.80;;;;;;;;;;5019506;28;20045;-86
2024/01/19 09:24:29;;;;;;;11.18;1.90;;;;;;;;;;5025033;28;20051;-86
2024/01/19 09:26:55;;;;;;;6.25;2.08;;;;;;;;;;5022670;28;20213;-85
2024/01/19 09:29:21;;;;;;;8.80;1.80;;;;;;;;;;5041495;28;20752;-86
2024/01/19 09:31:47;;;;;;;3.42;1.58;;;;;;;;;;5040153;28;20037;-85
2024/01/19 09:34:14;;;;;;;6.68;1.60;;;;;;;;;;5031416;28;20769;-86
2024/01/19 09:36:40;;;;;;;5.30;1.73;;;;;;;;;;5025906;28;20049;-85
2024/01/19 09:39:06;;;;;;;5.32;1.52;;;;;;;;;;5022308;28;20124;-86
2024/01/19 09:41:40;;;;;;;4.70;1.55;;;;;;;;;;5053345;28;20037;-86
2024/01/19 09:44:10;;;;;;;6.22;1.60;;;;;;;;;;5024219;28;20044;-86
2024/01/19 09:46:52;;;;;;;4.47;2.20;;;;;;;;;;5029696;28;20100;-86
2024/01/19 09:49:18;;;;;;;7.10;2.03;;;;;;;;;;5029608;28;20124;-86
2024/01/19 09:51:53;;;;;;;5.03;1.13;;;;;;;;;;5030151;28;20050;-86
2024/01/19 09:54:24;;;;;;;6.72;2.33;;;;;;;;;;5026515;28;20065;-86
2024/01/19 09:56:50;;;;;;;7.65;2.05;;;;;;;;;;5029049;28;20041;-86
2024/01/19 09:59:17;;;;;;;9.88;1.80;;;;;;;;;;5025668;28;20048;-87
2024/01/19 10:01:43;;;;;;;5.05;1.92;;;;;;;;;;5022458;28;20048;-86
2024/01/19 10:04:13;;;;;;;9.25;1.92;;;;;;;;;;5031282;28;20894;-87
2024/01/19 10:06:39;;;;;;;8.70;2.25;;;;;;;;;;5029417;28;20055;-86
2024/01/19 10:09:05;;;;;;;5.85;2.10;;;;;;;;;;5051779;28;20044;-87
2024/01/19 10:11:31;;;;;;;7.72;2.50;;;;;;;;;;5021892;28;20155;-87
2024/01/19 10:13:58;;;;;;;8.32;2.83;;;;;;;;;;5035957;28;20495;-87
2024/01/19 10:16:24;;;;;;;7.45;2.40;;;;;;;;;;5029497;28;20502;-88
2024/01/19 10:18:50;;;;;;;9.02;2.10;;;;;;;;;;5027144;28;20041;-87
2024/01/19 10:21:27;;;;;;;7.53;2.00;;;;;;;;;;5028564;28;20045;-88
2024/01/19 10:24:09;;;;;;;7.35;2.03;;;;;;;;;;5033794;28;20075;-87
2024/01/19 10:26:38;;;;;;;8.13;2.03;;;;;;;;;;5032030;28;20056;-87
2024/01/19 10:29:11;;;;;;;5.63;1.92;;;;;;;;;;5032184;28;20044;-88
2024/01/19 10:31:38;;;;;;;7.57;1.70;;;;;;;;;;5045221;28;20041;-87
2024/01/19 10:34:04;;;;;;;6.15;2.30;;;;;;;;;;5043781;28;20047;-87
2024/01/19 10:36:38;;;;;;;7.15;2.72;;;;;;;;;;5031309;28;20049;-88
2024/01/19 10:39:33;;;;;;;7.80;2.13;;;;;;;;;;5036643;28;20147;-87
2024/01/19 10:42:04;;;;;;;8.95;2.40;;;;;;;;;;5014604;28;20126;-87
2024/01/19 10:44:30;;;;;;;6.97;2.00;;;;;;;;;;5044538;28;20040;-87
2024/01/19 10:46:56;;;;;;;8.45;2.42;;;;;;;;;;5045111;28;20056;-87
2024/01/19 10:49:23;;;;;;;7.20;2.38;;;;;;;;;;5037348;28;20036;-87
2024/01/19 10:51:49;;;;;;;7.82;2.28;;;;;;;;;;5045153;28;20132;-87
2024/01/19 10:54:25;;;;;;;11.30;2.70;;;;;;;;;;5030872;28;20064;-88
2024/01/19 10:57:02;;;;;;;9.30;2.60;;;;;;;;;;5036960;28;20045;-88
2024/01/19 10:59:28;;;;;;;6.65;1.83;;;;;;;;;;5037963;28;20040;-88
2024/01/19 11:01:59;;;;;;;7.72;2.53;;;;;;;;;;5037622;28;20048;-87
2024/01/19 11:04:25;;;;;;;11.13;2.70;;;;;;;;;;5026751;28;20490;-87
2024/01/19 11:06:51;;;;;;;7.15;2.05;;;;;;;;;;5040671;28;20526;-87
2024/01/19 11:09:17;;;;;;;10.45;2.17;;;;;;;;;;5046950;28;20040;-88
2024/01/19 11:11:47;;;;;;;7.28;2.35;;;;;;;;;;5027632;28;20087;-86
2024/01/19 11:14:17;;;;;;;11.00;2.63;;;;;;;;;;5030554;28;20541;-88
2024/01/19 11:16:48;;;;;;;9.65;2.15;;;;;;;;;;5036253;28;20041;-87
2024/01/19 11:19:17;;;;;;;11.02;2.85;;;;;;;;;;5030411;28;20174;-88
2024/01/19 11:21:44;;;;;;;7.57;2.83;;;;;;;;;;5040028;28;20075;-87
2024/01/19 11:24:10;;;;;;;6.10;2.17;;;;;;;;;;5028683;28;20037;-87
2024/01/19 11:26:43;;;;;;;7.35;1.83;;;;;;;;;;5036281;28;20041;-87
2024/01/19 11:29:22;;;;;;;9.55;2.45;;;;;;;;;;5035057;28;20052;-88
2024/01/19 11:31:49;;;;;;;7.55;1.95;;;;;;;;;;5037885;28;20743;-88
2024/01/19 11:34:33;;;;;;;7.45;2.53;;;;;;;;;;5044805;28;20044;-86
2024/01/19 11:37:00;;;;;;;9.02;2.70;;;;;;;;;;5047180;28;20063;-87
2024/01/19 11:39:38;;;;;;;8.02;2.40;;;;;;;;;;5024762;28;20103;-87
2024/01/19 11:42:04;;;;;;;7.93;2.75;;;;;;;;;;5030764;28;20072;-86
2024/01/19 11:44:43;;;;;;;18.23;3.33;;;;;;;;;;5019711;28;20043;-87
2024/01/19 11:47:30;;;;;;;12.55;3.45;;;;;;;;;;5028335;28;20098;-86
2024/01/19 11:49:56;;;;;;;12.20;3.25;;;;;;;;;;5036358;28;20743;-86
2024/01/19 11:52:22;;;;;;;9.90;3.05;;;;;;;;;;5051510;28;20477;-85
2024/01/19 11:54:48;;;;;;;13.32;3.53;;;;;;;;;;5031915;28;20033;-87
2024/01/19 11:57:17;;;;;;;6.70;3.13;;;;;;;;;;5050108;28;20106;-86
2024/01/19 11:59:43;;;;;;;9.65;2.63;;;;;;;;;;5050828;28;20068;-88
2024/01/19 12:02:20;;;;;;;8.32;2.28;;;;;;;;;;5035464;28;20041;-89
2024/01/19 12:04:47;;;;;;;11.20;2.80;;;;;;;;;;5028103;28;20047;-85
2024/01/19 12:07:22;;;;;;;12.90;2.80;;;;;;;;;;5028923;28;20063;-86
2024/01/19 12:10:08;;;;;;;16.17;2.88;;;;;;;;;;5035885;28;20047;-86
2024/01/19 12:12:34;;;;;;;10.13;2.55;;;;;;;;;;5032890;28;20047;-87
2024/01/19 12:15:01;;;;;;;9.32;2.63;;;;;;;;;;5026121;28;20115;-87
2024/01/19 12:17:27;;;;;;;13.43;1.98;;;;;;;;;;5031514;28;20052;-86
2024/01/19 12:19:53;;;;;;;9.13;1.95;;;;;;;;;;5041482;28;20168;-87
2024/01/19 12:22:22;;;;;;;9.50;2.20;;;;;;;;;;5025849;28;20044;-86
2024/01/19 12:24:49;;;;;;;10.10;2.10;;;;;;;;;;5041089;28;20044;-87
2024/01/19 12:27:18;;;;;;;9.93;1.90;;;;;;;;;;5037953;28;20503;-87
2024/01/19 12:29:44;;;;;;;6.88;2.28;;;;;;;;;;5019888;28;20044;-86
2024/01/19 12:32:11;;;;;;;10.88;2.33;;;;;;;;;;5025961;28;20709;-86
2024/01/19 12:34:37;;;;;;;8.45;1.90;;;;;;;;;;5019267;28;20045;-87
2024/01/19 12:37:03;;;;;;;6.03;1.85;;;;;;;;;;5025174;28;20149;-84
2024/01/19 12:39:29;;;;;;;7.72;1.88;;;;;;;;;;5043768;28;20056;-83
2024/01/19 12:42:04;;;;;;;7.60;1.92;;;;;;;;;;5055584;28;20101;-88
2024/01/19 12:44:31;;;;;;;5.25;1.63;;;;;;;;;;5026929;28;20036;-87
2024/01/19 12:47:00;;;;;;;7.60;2.22;;;;;;;;;;5039329;28;20051;-86
2024/01/19 12:49:26;;;;;;;6.53;2.05;;;;;;;;;;5023994;28;20044;-87
2024/01/19 12:51:53;;;;;;;10.93;1.98;;;;;;;;;;5030012;28;20152;-86
2024/01/19 12:54:19;;;;;;;4.78;1.85;;;;;;;;;;5033535;28;20042;-87
2024/01/19 12:56:48;;;;;;;5.32;2.17;;;;;;;;;;5026641;28;20053;-87
2024/01/19 12:59:19;;;;;;;6.78;1.42;;;6.70;99.90;;;;;;5005775;28;20041;-86
2024/01/19 13:01:46;;;;;;;6.75;1.70;;;;;;;;;;5012096;28;20060;-87
2024/01/19 13:04:14;;;;;;;2.83;2.20;;;;;;;;;;5020932;28;20048;-87
2024/01/19 13:06:44;;;;;;;7.85;1.60;;;;;;;;;;5031413;28;20169;-87
2024/01/19 13:09:10;;;;;;;7.53;2.20;;;;;;;;;;5011818;28;20048;-87
2024/01/19 13:11:36;;;;;;;8.77;1.98;;;;;;;;;;5013752;28;20037;-87
2024/01/19 13:14:03;;;;;;;8.73;2.08;;;;;;;;;;5024250;28;20772;-87
2024/01/19 13:16:30;;;;;;;2.42;1.52;;;;;;;;;;5022114;28;20041;-88
2024/01/19 13:18:59;;;;;;;6.95;1.42;;;;;;;;;;5037476;28;20132;-87
2024/01/19 13:21:26;;;;;;;7.88;2.08;;;;;;;;;;5024960;28;20045;-89
2024/01/19 13:23:52;;;;;;;6.88;1.73;;;;;;;;;;5030574;28;20048;-88
2024/01/19 13:26:19;;;;;;;10.90;1.95;;;;;;;;;;5030328;28;20044;-87
2024/01/19 13:28:46;;;;;;;6.57;1.95;;;;;;;;;;5046384;28;20509;-85
2024/01/19 13:31:14;;;;;;;4.82;1.67;;;;;;;;;;5029619;28;20604;-85
2024/01/19 13:33:42;;;;;;;7.47;1.83;;;;;;;;;;5028447;28;20048;-87
2024/01/19 13:36:08;;;;;;;4.15;1.63;;;;;;;;;;5033699;28;20047;-88
2024/01/19 13:38:34;;;;;;;11.82;1.90;;;;;;;;;;5029117;28;20052;-88
2024/01/19 13:41:00;;;;;;;3.60;1.50;;;;;;;;;;5030949;28;20671;-86
2024/01/19 13:43:26;;;;;;;5.30;1.90;;;;;;;;;;5029192;28;20040;-88
2024/01/19 13:45:52;;;;;;;5.35;1.17;;;;;;;;;;5028738;28;20079;-87
2024/01/19 13:48:19;;;;;;;5.93;1.80;;;;;;;;;;5028877;28;20033;-86
2024/01/19 13:50:45;;;;;;;9.05;1.58;;;;;;;;;;5031241;28;20470;-86
2024/01/19 13:53:11;;;;;;;5.57;2.03;;;;;;;;;;5029075;28;20041;-86
2024/01/19 13:55:37;;;;;;;4.78;1.98;;;;;;;;;;5028403;28;20573;-87
2024/01/19 13:58:03;;;;;;;5.43;1.60;;;;;;;;;;5038739;28;20048;-86
2024/01/19 14:00:29;;;;;;;6.63;1.70;;;;;;;;;;5036631;28;20883;-86
2024/01/19 14:02:57;;;;;;;11.05;2.08;;;;;;;;;;5050014;28;20422;-86
2024/01/19 14:05:24;;;;;;;6.20;2.20;;;;;;;;;;5048562;28;20044;-87
2024/01/19 14:07:50;;;;;;;4.38;1.77;;;;;;;;;;5031022;28;20041;-89
2024/01/19 14:10:16;;;;;;;4.18;2.22;;;;;;;;;;5044667;28;20152;-87
2024/01/19 14:12:43;;;;;;;5.45;2.20;;;;;;;;;;5027607;28;20047;-86
2024/01/19 14:15:09;;;;;;;6.18;1.52;;;;;;;;;;5046904;28;20406;-87
2024/01/19 14:17:35;;;;;;;4.72;2.10;;;;;;;;;;5035687;28;20370;-88
2024/01/19 14:20:02;;;;;;;7.97;2.33;;;;;;;;;;5028362;28;20446;-87
2024/01/19 14:22:28;;;;;;;8.55;2.22;;;;;;;;;;5045372;28;20045;-86
2024/01/19 14:24:54;;;;;;;6.40;2.15;;;;;;;;;;5043783;28;20072;-84
2024/01/19 14:27:22;;;;;;;6.78;2.55;;;;;;;;;;5034872;28;20044;-84
2024/01/19 14:29:49;;;;;;;7.22;2.65;;;;;;;;;;5045783;28;20039;-83
2024/01/19 14:32:17;;;;;;;7.85;2.60;;;;;;;;;;5052522;28;20837;-84
2024/01/19 14:34:43;;;;;;;7.63;2.40;;;;;;;;;;5045837;28;20084;-83
2024/01/19 14:37:11;;;;;;;7.13;2.40;;;;;;;;;;5036351;28;20061;-85
2024/01/19 14:39:37;;;;;;;5.78;2.72;;;;;;;;;;5023964;28;20053;-84